createdAt,value
2022-08-22T00:02:51.228Z,21.23
2022-08-22T00:03:01.922Z,18.91
2022-08-22T00:05:03.929Z,14.56
2022-08-22T00:07:49.483Z,14.56
2022-08-22T00:18:05.682Z,14.34
2022-08-22T00:20:57.689Z,14.35
2022-08-22T00:37:06.728Z,14.06
2022-08-22T00:40:03.842Z,14.10
2022-08-22T00:42:48.524Z,14.10
2022-08-22T00:48:47.116Z,14.01
2022-08-22T00:55:17.280Z,13.88
2022-08-22T00:58:11.652Z,13.85
2022-08-22T01:00:52.736Z,13.88
2022-08-22T01:03:44.461Z,13.82
2022-08-22T01:07:13.427Z,13.76
2022-08-22T01:10:17.845Z,13.70
2022-08-22T01:13:03.884Z,13.71
2022-08-22T01:15:36.525Z,13.67
2022-08-22T01:18:17.247Z,13.70
2022-08-22T01:21:20.852Z,13.63
2022-08-22T01:24:33.920Z,13.54
2022-08-22T01:31:35.185Z,13.42
2022-08-22T01:34:36.981Z,13.42
2022-08-22T01:41:20.852Z,13.30
2022-08-22T01:44:16.993Z,13.29
2022-08-22T01:47:06.413Z,13.30
2022-08-22T01:49:39.825Z,13.32
2022-08-22T01:52:13.241Z,13.31
2022-08-22T01:54:43.631Z,13.33
2022-08-22T01:57:29.732Z,13.25
2022-08-22T02:00:01.845Z,13.25
2022-08-22T02:06:23.335Z,13.18
2022-08-22T02:09:06.887Z,13.18
2022-08-22T02:11:48.263Z,13.15
2022-08-22T02:14:27.605Z,13.11
2022-08-22T02:21:24.267Z,13.05
2022-08-22T02:24:00.083Z,13.06
2022-08-22T02:26:37.519Z,13.04
2022-08-22T02:29:17.263Z,13.04
2022-08-22T02:31:55.592Z,13.00
2022-08-22T02:34:29.250Z,12.95
2022-08-22T02:40:43.236Z,12.87
2022-08-22T02:43:25.690Z,12.88
2022-08-22T02:50:21.929Z,12.71
2022-08-22T02:52:52.252Z,12.74
2022-08-22T02:55:43.798Z,12.74
2022-08-22T02:58:25.234Z,12.67
2022-08-22T03:01:17.012Z,12.66
2022-08-22T03:03:47.743Z,12.62
2022-08-22T03:10:11.251Z,12.56
2022-08-22T03:13:14.354Z,12.54
2022-08-22T03:16:31.085Z,12.50
2022-08-22T03:19:31.328Z,12.50
2022-08-22T03:25:55.905Z,12.40
2022-08-22T03:28:58.952Z,12.40
2022-08-22T03:31:29.971Z,12.41
2022-08-22T03:34:18.592Z,12.40
2022-08-22T03:37:04.183Z,12.40
2022-08-22T03:40:01.594Z,12.40
2022-08-22T03:42:50.179Z,12.40
2022-08-22T03:46:03.985Z,12.39
2022-08-22T03:49:13.083Z,12.35
2022-08-22T03:52:13.417Z,12.26
2022-08-22T03:58:40.478Z,12.20
2022-08-22T04:01:25.791Z,12.17
2022-08-22T04:04:11.380Z,12.11
2022-08-22T04:06:48.382Z,12.09
2022-08-22T04:09:42.196Z,12.08
2022-08-22T04:16:04.677Z,12.00
2022-08-22T04:22:32.827Z,11.94
2022-08-22T04:25:26.052Z,11.97
2022-08-22T04:28:04.674Z,11.96
2022-08-22T04:30:45.785Z,11.96
2022-08-22T04:33:39.454Z,11.97
2022-08-22T04:40:15.583Z,11.98
2022-08-22T04:43:06.843Z,12.02
2022-08-22T04:49:40.710Z,11.97
2022-08-22T04:52:46.783Z,11.96
2022-08-22T04:55:36.608Z,11.93
2022-08-22T04:58:46.297Z,11.92
2022-08-22T05:01:22.624Z,11.94
2022-08-22T05:07:55.474Z,11.96
2022-08-22T05:10:43.680Z,11.95
2022-08-22T05:13:23.477Z,11.95
2022-08-22T05:16:15.282Z,11.95
2022-08-22T05:18:53.708Z,11.95
2022-08-22T05:21:40.553Z,11.91
2022-08-22T05:27:56.430Z,11.95
2022-08-22T05:37:46.134Z,11.93
2022-08-22T05:48:04.921Z,11.87
2022-08-22T05:50:56.929Z,11.93
2022-08-22T05:57:53.488Z,11.98
2022-08-22T06:00:28.449Z,12.09
2022-08-22T06:03:34.870Z,12.21
2022-08-22T06:06:14.697Z,12.33
2022-08-22T06:13:01.303Z,12.62
2022-08-22T06:16:07.175Z,12.77
2022-08-22T06:18:40.323Z,12.93
2022-08-22T06:21:44.468Z,13.12
2022-08-22T06:24:19.534Z,13.25
2022-08-22T06:26:50.092Z,13.38
2022-08-22T06:33:44.289Z,13.69
2022-08-22T06:36:20.652Z,13.86
2022-08-22T06:42:32.708Z,14.16
2022-08-22T06:45:17.936Z,14.28
2022-08-22T06:51:39.064Z,14.53
2022-08-22T06:54:15.203Z,14.68
2022-08-22T07:00:36.687Z,14.94
2022-08-22T07:03:08.822Z,15.06
2022-08-22T07:05:39.303Z,15.21
2022-08-22T07:08:13.847Z,15.30
2022-08-22T07:10:44.332Z,15.41
2022-08-22T07:13:19.101Z,15.52
2022-08-22T07:16:08.678Z,15.63
2022-08-22T07:18:48.201Z,15.73
2022-08-22T07:21:32.584Z,15.82
2022-08-22T07:24:04.119Z,15.92
2022-08-22T07:26:49.800Z,16.00
2022-08-22T07:29:40.115Z,16.04
2022-08-22T07:32:26.415Z,16.12
2022-08-22T07:35:09.748Z,16.25
2022-08-22T07:38:04.678Z,16.33
2022-08-22T07:41:01.158Z,16.38
2022-08-22T07:43:52.213Z,16.48
2022-08-22T07:46:25.353Z,16.57
2022-08-22T07:49:09.521Z,16.67
2022-08-22T07:51:47.269Z,16.77
2022-08-22T07:54:27.221Z,16.82
2022-08-22T07:57:03.235Z,16.93
2022-08-22T07:59:46.015Z,17.04
2022-08-22T08:02:20.927Z,17.16
2022-08-22T08:04:54.601Z,17.23
2022-08-22T08:07:26.687Z,17.28
2022-08-22T08:10:13.089Z,17.39
2022-08-22T08:13:02.034Z,17.44
2022-08-22T08:15:32.943Z,17.51
2022-08-22T08:18:12.511Z,17.59
2022-08-22T08:20:40.207Z,17.64
2022-08-22T08:23:10.750Z,17.75
2022-08-22T08:26:01.803Z,17.84
2022-08-22T08:28:30.192Z,17.93
2022-08-22T08:31:09.688Z,18.01
2022-08-22T08:33:41.106Z,18.03
2022-08-22T08:36:17.102Z,18.15
2022-08-22T08:39:02.878Z,18.23
2022-08-22T08:41:45.196Z,18.29
2022-08-22T08:44:43.632Z,18.34
2022-08-22T08:47:50.856Z,18.34
2022-08-22T08:50:51.607Z,18.48
2022-08-22T08:53:43.221Z,18.60
2022-08-22T08:56:48.750Z,18.66
2022-08-22T08:59:36.336Z,18.75
2022-08-22T09:02:24.897Z,18.84
2022-08-22T09:05:16.784Z,18.95
2022-08-22T09:08:03.668Z,19.00
2022-08-22T09:11:00.863Z,19.08
2022-08-22T09:13:54.907Z,19.16
2022-08-22T09:16:29.008Z,19.24
2022-08-22T09:18:56.519Z,19.32
2022-08-22T09:21:45.995Z,19.43
2022-08-22T09:24:51.121Z,19.44
2022-08-22T09:27:37.107Z,19.50
2022-08-22T09:30:13.362Z,19.53
2022-08-22T09:33:16.253Z,19.58
2022-08-22T09:36:12.433Z,19.62
2022-08-22T09:38:46.691Z,19.75
2022-08-22T09:41:41.347Z,19.78
2022-08-22T09:44:50.199Z,19.83
2022-08-22T09:47:33.725Z,19.92
2022-08-22T09:50:17.618Z,19.95
2022-08-22T09:52:57.451Z,20.05
2022-08-22T09:55:50.160Z,20.08
2022-08-22T09:58:49.303Z,20.16
2022-08-22T10:01:32.831Z,20.25
2022-08-22T10:04:34.432Z,20.35
2022-08-22T10:07:31.260Z,20.42
2022-08-22T10:10:04.822Z,20.50
2022-08-22T10:12:42.678Z,20.60
2022-08-22T10:15:40.138Z,20.69
2022-08-22T10:18:26.164Z,20.76
2022-08-22T10:21:10.580Z,20.84
2022-08-22T10:23:57.668Z,20.96
2022-08-22T10:26:46.760Z,21.10
2022-08-22T10:29:51.514Z,21.17
2022-08-22T10:32:19.862Z,21.24
2022-08-22T10:35:20.149Z,21.27
2022-08-22T10:38:03.165Z,21.40
2022-08-22T10:41:23.283Z,21.62
2022-08-22T10:43:56.588Z,21.86
2022-08-22T10:46:36.720Z,22.05
2022-08-22T10:49:46.994Z,22.24
2022-08-22T10:52:49.203Z,22.52
2022-08-22T10:55:28.685Z,22.74
2022-08-22T10:58:23.377Z,22.94
2022-08-22T11:01:38.205Z,23.12
2022-08-22T11:04:12.100Z,23.40
2022-08-22T11:07:17.721Z,23.65
2022-08-22T11:10:03.466Z,24.08
2022-08-22T11:12:44.483Z,24.42
2022-08-22T11:15:28.376Z,24.71
2022-08-22T11:18:57.811Z,25.58
2022-08-22T11:21:58.055Z,26.19
2022-08-22T11:24:35.385Z,26.51
2022-08-22T11:27:12.960Z,26.83
2022-08-22T11:30:19.113Z,27.31
2022-08-22T11:33:16.949Z,27.65
2022-08-22T11:36:04.876Z,27.93
2022-08-22T11:38:54.181Z,28.22
2022-08-22T11:41:37.096Z,28.39
2022-08-22T11:44:21.519Z,28.50
2022-08-22T11:46:53.683Z,28.47
2022-08-22T11:49:37.283Z,28.34
2022-08-22T11:52:53.218Z,28.31
2022-08-22T11:55:33.194Z,28.11
2022-08-22T11:59:14.814Z,27.87
2022-08-22T12:01:52.513Z,27.52
2022-08-22T12:04:51.149Z,27.42
2022-08-22T12:07:28.802Z,27.46
2022-08-22T12:10:04.528Z,27.44
2022-08-22T12:12:45.021Z,27.36
2022-08-22T12:15:33.362Z,27.41
2022-08-22T12:18:06.527Z,27.38
2022-08-22T12:21:09.157Z,27.26
2022-08-22T12:24:19.324Z,27.11
2022-08-22T12:27:09.078Z,27.04
2022-08-22T12:30:02.331Z,27.07
2022-08-22T12:32:34.294Z,27.12
2022-08-22T12:35:20.504Z,27.24
2022-08-22T12:38:28.149Z,27.45
2022-08-22T12:41:35.309Z,27.33
2022-08-22T12:44:34.269Z,27.28
2022-08-22T12:47:17.286Z,27.43
2022-08-22T12:49:52.531Z,27.58
2022-08-22T12:52:44.772Z,27.62
2022-08-22T12:55:30.412Z,27.73
2022-08-22T12:58:17.927Z,27.81
2022-08-22T13:00:48.565Z,27.88
2022-08-22T13:03:37.028Z,28.00
2022-08-22T13:06:36.149Z,28.03
2022-08-22T13:09:18.854Z,27.95
2022-08-22T13:11:54.418Z,27.71
2022-08-22T13:14:30.349Z,27.73
2022-08-22T13:17:23.628Z,27.74
2022-08-22T13:20:06.236Z,27.85
2022-08-22T13:22:45.331Z,28.03
2022-08-22T13:25:25.924Z,28.19
2022-08-22T13:28:11.896Z,28.26
2022-08-22T13:30:43.712Z,28.25
2022-08-22T13:33:35.560Z,28.26
2022-08-22T13:36:12.958Z,28.20
2022-08-22T13:39:07.375Z,28.03
2022-08-22T13:41:49.785Z,27.85
2022-08-22T13:44:24.757Z,27.67
2022-08-22T13:47:13.604Z,27.71
2022-08-22T13:49:48.989Z,27.87
2022-08-22T13:52:37.979Z,27.95
2022-08-22T13:55:23.303Z,28.10
2022-08-22T13:58:39.266Z,28.29
2022-08-22T14:01:35.823Z,28.44
2022-08-22T14:04:36.380Z,28.55
2022-08-22T14:07:03.634Z,28.69
2022-08-22T14:09:45.310Z,28.74
2022-08-22T14:12:57.519Z,28.59
2022-08-22T14:15:44.598Z,28.50
2022-08-22T14:18:30.399Z,28.41
2022-08-22T14:21:24.944Z,28.12
2022-08-22T14:24:02.379Z,27.91
2022-08-22T14:26:47.566Z,27.83
2022-08-22T14:29:20.028Z,27.80
2022-08-22T14:32:23.316Z,28.05
2022-08-22T14:35:40.960Z,28.35
2022-08-22T14:38:30.423Z,28.70
2022-08-22T14:41:25.045Z,28.98
2022-08-22T14:44:17.980Z,28.98
2022-08-22T14:47:08.345Z,28.97
2022-08-22T14:50:00.163Z,28.69
2022-08-22T14:52:46.081Z,28.72
2022-08-22T14:55:25.456Z,28.89
2022-08-22T14:58:06.051Z,29.03
2022-08-22T15:00:40.812Z,29.23
2022-08-22T15:03:09.901Z,29.38
2022-08-22T15:05:56.131Z,29.52
2022-08-22T15:08:31.298Z,29.68
2022-08-22T15:11:19.431Z,29.78
2022-08-22T15:14:13.445Z,29.90
2022-08-22T15:16:59.802Z,30.02
2022-08-22T15:19:33.147Z,30.19
2022-08-22T15:22:25.756Z,30.32
2022-08-22T15:25:13.366Z,30.37
2022-08-22T15:28:14.173Z,30.38
2022-08-22T15:30:45.916Z,30.46
2022-08-22T15:33:22.771Z,30.50
2022-08-22T15:35:54.240Z,30.52
2022-08-22T15:38:51.661Z,30.57
2022-08-22T15:41:22.269Z,30.68
2022-08-22T15:44:00.898Z,30.77
2022-08-22T15:47:23.681Z,30.70
2022-08-22T15:49:59.592Z,30.69
2022-08-22T15:52:32.986Z,30.63
2022-08-22T15:58:27.480Z,30.39
2022-08-22T16:01:20.827Z,30.26
2022-08-22T16:04:15.959Z,30.10
2022-08-22T16:06:57.035Z,29.95
2022-08-22T16:09:46.104Z,29.72
2022-08-22T16:12:33.265Z,29.49
2022-08-22T16:15:04.927Z,29.39
2022-08-22T16:17:39.961Z,29.10
2022-08-22T16:20:36.624Z,28.76
2022-08-22T16:23:03.931Z,28.48
2022-08-22T16:25:47.416Z,28.23
2022-08-22T16:28:57.454Z,27.97
2022-08-22T16:31:40.440Z,27.54
2022-08-22T16:34:16.720Z,27.37
2022-08-22T16:37:08.905Z,27.02
2022-08-22T16:39:51.140Z,26.79
2022-08-22T16:42:18.673Z,26.54
2022-08-22T16:45:05.339Z,26.26
2022-08-22T16:47:32.742Z,26.07
2022-08-22T16:50:15.977Z,25.92
2022-08-22T16:53:04.749Z,25.80
2022-08-22T16:55:31.969Z,25.67
2022-08-22T16:58:44.940Z,25.48
2022-08-22T17:01:28.563Z,25.27
2022-08-22T17:04:38.951Z,25.07
2022-08-22T17:07:44.069Z,24.92
2022-08-22T17:11:01.230Z,24.67
2022-08-22T17:13:44.670Z,24.50
2022-08-22T17:16:45.466Z,24.35
2022-08-22T17:19:40.451Z,24.23
2022-08-22T17:22:42.738Z,24.03
2022-08-22T17:25:47.970Z,23.82
2022-08-22T17:28:48.481Z,23.65
2022-08-22T17:31:47.423Z,23.56
2022-08-22T17:34:47.380Z,23.36
2022-08-22T17:37:49.089Z,23.23
2022-08-22T17:40:53.199Z,23.03
2022-08-22T17:43:49.754Z,22.87
2022-08-22T17:46:40.912Z,22.82
2022-08-22T17:49:42.721Z,22.75
2022-08-22T17:52:54.307Z,22.60
2022-08-22T17:55:48.965Z,22.52
2022-08-22T17:58:37.380Z,22.43
2022-08-22T18:01:33.908Z,22.29
2022-08-22T18:04:05.241Z,22.15
2022-08-22T18:06:47.002Z,22.06
2022-08-22T18:09:47.030Z,21.91
2022-08-22T18:12:40.195Z,21.75
2022-08-22T18:15:20.331Z,21.58
2022-08-22T18:18:13.686Z,21.41
2022-08-22T18:20:55.540Z,21.26
2022-08-22T18:23:46.265Z,21.12
2022-08-22T18:26:53.626Z,20.96
2022-08-22T18:29:42.473Z,20.84
2022-08-22T18:32:21.247Z,20.70
2022-08-22T18:35:16.991Z,20.59
2022-08-22T18:38:19.631Z,20.47
2022-08-22T18:41:19.740Z,20.31
2022-08-22T18:43:49.717Z,20.20
2022-08-22T18:46:42.459Z,20.06
2022-08-22T18:49:29.836Z,19.93
2022-08-22T18:52:06.312Z,19.85
2022-08-22T18:54:52.401Z,19.76
2022-08-22T18:57:41.523Z,19.67
2022-08-22T19:01:02.202Z,19.55
2022-08-22T19:04:12.969Z,19.41
2022-08-22T19:06:45.773Z,19.31
2022-08-22T19:09:57.761Z,19.15
2022-08-22T19:12:41.020Z,19.09
2022-08-22T19:15:29.185Z,18.98
2022-08-22T19:18:15.374Z,18.89
2022-08-22T19:20:43.014Z,18.80
2022-08-22T19:23:35.168Z,18.72
2022-08-22T19:26:31.935Z,18.63
2022-08-22T19:29:14.348Z,18.58
2022-08-22T19:31:46.888Z,18.54
2022-08-22T19:34:17.055Z,18.46
2022-08-22T19:36:45.783Z,18.42
2022-08-22T19:39:42.535Z,18.35
2022-08-22T19:42:20.788Z,18.28
2022-08-22T19:45:07.076Z,18.24
2022-08-22T19:47:40.196Z,18.16
2022-08-22T19:50:16.538Z,18.09
2022-08-22T19:52:57.615Z,18.02
2022-08-22T19:55:34.105Z,17.97
2022-08-22T19:58:32.711Z,17.86
2022-08-22T20:01:41.911Z,17.71
2022-08-22T20:04:36.083Z,17.63
2022-08-22T20:07:32.227Z,17.57
2022-08-22T20:10:25.784Z,17.49
2022-08-22T20:13:10.718Z,17.44
2022-08-22T20:16:16.181Z,17.38
2022-08-22T20:19:07.673Z,17.29
2022-08-22T20:21:59.245Z,17.28
2022-08-22T20:24:45.545Z,17.21
2022-08-22T20:27:39.547Z,17.14
2022-08-22T20:30:25.605Z,17.09
2022-08-22T20:32:59.105Z,17.04
2022-08-22T20:35:47.387Z,17.01
2022-08-22T20:38:20.263Z,16.90
2022-08-22T20:41:32.647Z,16.74
2022-08-22T20:44:29.725Z,16.68
2022-08-22T20:47:09.302Z,16.63
2022-08-22T20:49:53.202Z,16.60
2022-08-22T20:52:54.835Z,16.54
2022-08-22T20:55:31.218Z,16.50
2022-08-22T20:58:26.434Z,16.49
2022-08-22T21:00:57.588Z,16.41
2022-08-22T21:03:49.417Z,16.35
2022-08-22T21:06:31.822Z,16.30
2022-08-22T21:09:17.703Z,16.28
2022-08-22T21:11:51.372Z,16.26
2022-08-22T21:14:25.744Z,16.21
2022-08-22T21:16:53.698Z,16.17
2022-08-22T21:19:29.435Z,16.17
2022-08-22T21:22:16.544Z,16.07
2022-08-22T21:24:45.214Z,16.02
2022-08-22T21:27:22.916Z,15.93
2022-08-22T21:29:50.170Z,15.91
2022-08-22T21:32:42.356Z,15.89
2022-08-22T21:35:24.922Z,15.84
2022-08-22T21:37:52.893Z,15.82
2022-08-22T21:40:37.990Z,15.78
2022-08-22T21:43:09.170Z,15.77
2022-08-22T21:45:44.291Z,15.67
2022-08-22T21:48:34.397Z,15.59
2022-08-22T21:51:22.271Z,15.57
2022-08-22T21:53:56.059Z,15.55
2022-08-22T21:56:37.054Z,15.52
2022-08-22T21:59:51.541Z,15.46
2022-08-22T22:02:37.648Z,15.38
2022-08-22T22:05:17.642Z,15.36
2022-08-22T22:07:47.741Z,15.35
2022-08-22T22:10:19.245Z,15.30
2022-08-22T22:12:49.335Z,15.21
2022-08-22T22:15:21.768Z,15.16
2022-08-22T22:17:49.353Z,15.10
2022-08-22T22:20:19.769Z,15.04
2022-08-22T22:22:47.279Z,15.01
2022-08-22T22:25:38.909Z,14.95
2022-08-22T22:28:15.537Z,14.87
2022-08-22T22:30:45.368Z,14.87
2022-08-22T22:33:12.776Z,14.88
2022-08-22T22:35:41.249Z,14.81
2022-08-22T22:38:09.742Z,14.77
2022-08-22T22:40:37.406Z,14.78
2022-08-22T22:43:05.326Z,14.75
2022-08-22T22:45:32.495Z,14.72
2022-08-22T22:47:59.809Z,14.74
2022-08-22T22:50:27.161Z,14.69
2022-08-22T22:52:54.385Z,14.61
2022-08-22T22:55:24.352Z,14.62
2022-08-22T22:57:58.675Z,14.50
2022-08-22T23:00:33.495Z,14.48
2022-08-22T23:03:04.930Z,14.51
2022-08-22T23:05:33.476Z,14.52
2022-08-22T23:08:01.680Z,14.52
2022-08-22T23:10:31.295Z,14.52
2022-08-22T23:12:59.527Z,14.53
2022-08-22T23:15:27.715Z,14.46
2022-08-22T23:17:55.003Z,14.43
2022-08-22T23:20:22.726Z,14.39
2022-08-22T23:22:49.988Z,14.33
2022-08-22T23:25:17.363Z,14.32
2022-08-22T23:27:44.609Z,14.34
2022-08-22T23:30:15.943Z,14.32
2022-08-22T23:32:43.134Z,14.30
2022-08-22T23:35:10.416Z,14.28
2022-08-22T23:37:37.660Z,14.32
2022-08-22T23:40:06.536Z,14.32
2022-08-22T23:42:33.985Z,14.27
2022-08-22T23:45:01.236Z,14.24
2022-08-22T23:47:28.495Z,14.21
2022-08-22T23:49:55.931Z,14.24
2022-08-22T23:52:23.159Z,14.25
2022-08-22T23:54:54.575Z,14.23
2022-08-22T23:57:26.358Z,14.24
2022-08-22T23:59:58.353Z,14.19
